createdAt,value
2023-04-23T00:01:09.197Z,15.39
2023-04-23T00:06:11.458Z,15.47
2023-04-23T00:11:13.231Z,15.29
2023-04-23T00:16:15.873Z,15.38
2023-04-23T00:21:17.528Z,15.35
2023-04-23T00:26:19.083Z,15.42
2023-04-23T00:31:22.543Z,15.26
2023-04-23T00:36:24.156Z,15.38
2023-04-23T00:41:27.333Z,15.06
2023-04-23T00:46:28.967Z,15.21
2023-04-23T00:51:32.084Z,15.04
2023-04-23T00:56:33.736Z,14.92
2023-04-23T01:01:35.623Z,14.96
2023-04-23T01:06:37.560Z,14.97
2023-04-23T01:11:40.564Z,15.12
2023-04-23T01:16:42.565Z,15.12
2023-04-23T01:21:44.393Z,15.09
2023-04-23T01:26:46.715Z,15.00
2023-04-23T01:31:48.540Z,15.07
2023-04-23T01:36:51.895Z,15.07
2023-04-23T01:41:53.589Z,14.98
2023-04-23T01:46:56.585Z,14.99
2023-04-23T01:51:58.153Z,14.98
2023-04-23T01:57:00.166Z,14.96
2023-04-23T02:02:01.857Z,14.93
2023-04-23T02:07:03.493Z,14.87
2023-04-23T02:12:05.145Z,14.86
2023-04-23T02:17:07.080Z,14.81
2023-04-23T02:22:09.315Z,14.88
2023-04-23T02:27:10.970Z,14.82
2023-04-23T02:32:12.674Z,14.87
2023-04-23T02:37:14.222Z,14.82
2023-04-23T02:42:16.070Z,14.82
2023-04-23T02:47:17.696Z,14.78
2023-04-23T02:52:19.369Z,14.79
2023-04-23T02:57:21.296Z,14.78
2023-04-23T03:02:23.185Z,14.72
2023-04-23T03:07:25.433Z,14.68
2023-04-23T03:12:27.011Z,14.59
2023-04-23T03:17:28.623Z,14.65
2023-04-23T03:22:30.333Z,14.63
2023-04-23T03:27:32.006Z,14.68
2023-04-23T03:32:33.644Z,14.75
2023-04-23T03:37:35.444Z,14.82
2023-04-23T03:42:38.726Z,14.80
2023-04-23T03:47:41.027Z,14.84
2023-04-23T03:52:43.322Z,14.85
2023-04-23T03:57:52.833Z,14.86
2023-04-23T04:02:58.136Z,14.87
2023-04-23T04:08:01.807Z,14.78
2023-04-23T04:13:04.910Z,14.92
2023-04-23T04:18:06.867Z,14.86
2023-04-23T04:23:08.419Z,15.04
2023-04-23T04:28:11.852Z,15.06
2023-04-23T04:33:15.081Z,14.89
2023-04-23T04:38:16.693Z,15.00
2023-04-23T04:43:18.482Z,15.12
2023-04-23T04:48:20.673Z,14.96
2023-04-23T04:53:22.396Z,15.18
2023-04-23T04:58:23.979Z,15.29
2023-04-23T05:03:26.239Z,15.37
2023-04-23T05:08:27.933Z,15.41
2023-04-23T05:13:29.709Z,15.43
2023-04-23T05:18:31.291Z,15.51
2023-04-23T05:23:33.741Z,15.50
2023-04-23T05:28:35.304Z,15.66
2023-04-23T05:33:46.758Z,15.75
2023-04-23T05:38:51.201Z,15.73
2023-04-23T05:43:52.758Z,15.80
2023-04-23T05:48:54.373Z,15.84
2023-04-23T05:53:55.960Z,15.78
2023-04-23T05:58:57.956Z,15.91
2023-04-23T06:04:00.147Z,15.99
2023-04-23T06:09:01.904Z,16.10
2023-04-23T06:14:03.608Z,16.23
2023-04-23T06:19:05.212Z,16.52
2023-04-23T06:24:08.067Z,16.87
2023-04-23T06:29:09.821Z,17.09
2023-04-23T06:34:34.025Z,17.22
2023-04-23T06:39:35.580Z,17.27
2023-04-23T06:44:37.206Z,17.43
2023-04-23T06:49:40.354Z,17.39
2023-04-23T06:54:42.216Z,17.40
2023-04-23T06:59:43.974Z,17.18
2023-04-23T07:04:46.906Z,17.08
2023-04-23T07:09:48.684Z,17.18
2023-04-23T07:14:53.485Z,17.23
2023-04-23T07:19:55.093Z,17.31
2023-04-23T07:24:56.678Z,17.28
2023-04-23T07:29:58.378Z,17.32
2023-04-23T07:34:59.979Z,17.34
2023-04-23T07:40:02.304Z,17.29
2023-04-23T07:45:05.035Z,17.47
2023-04-23T07:50:07.493Z,17.33
2023-04-23T07:55:09.764Z,17.31
2023-04-23T08:00:12.172Z,17.42
2023-04-23T08:05:13.714Z,17.63
2023-04-23T08:10:15.438Z,17.88
2023-04-23T08:15:17.004Z,17.63
2023-04-23T08:20:19.652Z,17.54
2023-04-23T08:25:21.310Z,17.60
2023-04-23T08:30:23.051Z,17.71
2023-04-23T08:35:24.870Z,17.91
2023-04-23T08:40:30.282Z,18.12
2023-04-23T08:45:31.971Z,18.40
2023-04-23T08:50:33.727Z,18.36
2023-04-23T08:55:38.351Z,18.03
2023-04-23T09:00:40.522Z,17.94
2023-04-23T09:05:42.362Z,17.76
2023-04-23T09:10:44.694Z,17.72
2023-04-23T09:15:46.327Z,17.84
2023-04-23T09:20:47.999Z,18.00
2023-04-23T09:25:49.561Z,18.13
2023-04-23T09:30:51.176Z,18.35
2023-04-23T09:35:52.773Z,18.43
2023-04-23T09:40:54.428Z,18.46
2023-04-23T09:45:56.077Z,18.42
2023-04-23T09:50:57.648Z,18.29
2023-04-23T09:55:59.217Z,18.13
2023-04-23T10:01:10.075Z,18.03
2023-04-23T10:06:30.640Z,18.15
2023-04-23T10:11:37.078Z,18.23
2023-04-23T10:16:48.649Z,18.50
2023-04-23T10:22:05.396Z,18.48
2023-04-23T10:32:27.872Z,18.73
2023-04-23T10:37:29.736Z,18.53
2023-04-23T10:42:31.855Z,18.45
2023-04-23T10:47:33.474Z,18.55
2023-04-23T10:52:35.741Z,18.56
2023-04-23T10:58:13.154Z,18.78
2023-04-23T11:03:29.222Z,19.01
2023-04-23T11:08:34.404Z,19.13
2023-04-23T11:13:35.979Z,18.82
2023-04-23T11:18:56.883Z,18.60
2023-04-23T11:24:02.138Z,18.63
2023-04-23T11:29:04.305Z,18.72
2023-04-23T11:34:05.861Z,18.70
2023-04-23T11:39:08.480Z,18.76
2023-04-23T11:44:10.095Z,18.92
2023-04-23T11:49:13.215Z,18.58
2023-04-23T11:54:15.018Z,18.36
2023-04-23T11:59:16.745Z,18.71
2023-04-23T12:04:23.515Z,18.65
2023-04-23T12:09:27.727Z,18.71
2023-04-23T12:14:30.829Z,18.73
2023-04-23T12:19:32.596Z,18.50
2023-04-23T12:24:48.615Z,18.48
2023-04-23T12:30:00.057Z,18.38
2023-04-23T12:35:01.648Z,18.49
2023-04-23T12:40:07.039Z,18.62
2023-04-23T12:45:09.883Z,18.73
2023-04-23T12:50:12.230Z,18.85
2023-04-23T12:55:13.824Z,18.83
2023-04-23T13:00:15.729Z,18.66
2023-04-23T13:05:17.392Z,18.68
2023-04-23T13:10:19.323Z,18.74
2023-04-23T13:15:20.887Z,18.84
2023-04-23T13:20:22.595Z,18.87
2023-04-23T13:25:24.209Z,18.96
2023-04-23T13:30:25.779Z,18.90
2023-04-23T13:35:27.523Z,18.81
2023-04-23T13:40:29.132Z,18.86
2023-04-23T13:45:30.812Z,18.99
2023-04-23T13:50:32.383Z,19.06
2023-04-23T13:55:33.945Z,19.29
2023-04-23T14:00:35.530Z,18.92
2023-04-23T14:05:38.243Z,18.67
2023-04-23T14:10:42.382Z,18.90
2023-04-23T14:15:45.238Z,18.90
2023-04-23T14:20:47.007Z,18.86
2023-04-23T14:25:53.637Z,18.86
2023-04-23T14:30:56.632Z,18.84
2023-04-23T14:35:58.882Z,18.77
2023-04-23T14:41:00.589Z,18.78
2023-04-23T14:46:02.200Z,18.63
2023-04-23T14:51:04.193Z,18.56
2023-04-23T14:56:06.067Z,18.38
2023-04-23T15:01:07.795Z,18.54
2023-04-23T15:06:09.435Z,18.32
2023-04-23T15:11:13.459Z,18.22
2023-04-23T15:16:40.450Z,18.23
2023-04-23T15:21:49.311Z,18.32
2023-04-23T15:26:53.245Z,18.29
2023-04-23T15:31:58.014Z,18.25
2023-04-23T15:36:59.901Z,18.43
2023-04-23T15:42:02.104Z,18.40
2023-04-23T15:47:03.693Z,18.35
2023-04-23T15:52:05.777Z,18.36
2023-04-23T15:57:07.328Z,18.33
2023-04-23T16:02:09.011Z,18.38
2023-04-23T16:07:10.633Z,18.34
2023-04-23T16:12:12.684Z,18.42
2023-04-23T16:17:14.277Z,18.39
2023-04-23T16:22:17.444Z,18.17
2023-04-23T16:27:19.019Z,18.18
2023-04-23T16:32:20.821Z,18.08
2023-04-23T16:37:22.577Z,18.07
2023-04-23T16:42:24.239Z,18.01
2023-04-23T16:47:26.709Z,18.00
2023-04-23T16:52:28.309Z,17.97
2023-04-23T16:57:30.027Z,17.90
2023-04-23T17:02:32.386Z,17.84
2023-04-23T17:07:34.251Z,17.81
2023-04-23T17:12:35.806Z,17.85
2023-04-23T17:17:38.243Z,17.82
2023-04-23T17:22:39.845Z,17.80
2023-04-23T17:27:41.406Z,17.79
2023-04-23T17:32:43.089Z,17.72
2023-04-23T17:37:44.714Z,17.43
2023-04-23T17:42:46.317Z,17.23
2023-04-23T17:47:47.934Z,17.15
2023-04-23T17:52:51.543Z,16.90
2023-04-23T17:57:53.185Z,16.84
2023-04-23T18:02:55.089Z,16.75
2023-04-23T18:07:57.078Z,16.73
2023-04-23T18:13:01.158Z,16.67
2023-04-23T18:18:03.363Z,16.58
2023-04-23T18:23:06.474Z,16.49
2023-04-23T18:28:08.172Z,16.42
2023-04-23T18:33:16.564Z,16.33
2023-04-23T18:38:31.851Z,16.27
2023-04-23T18:43:34.336Z,16.36
2023-04-23T18:48:35.869Z,16.37
2023-04-23T18:53:38.970Z,16.33
2023-04-23T18:58:40.598Z,16.29
2023-04-23T19:03:42.858Z,16.34
2023-04-23T19:08:44.680Z,16.28
2023-04-23T19:13:46.667Z,16.33
2023-04-23T19:18:48.385Z,16.05
2023-04-23T19:23:51.766Z,16.01
2023-04-23T19:28:53.359Z,15.95
2023-04-23T19:33:54.941Z,15.75
2023-04-23T19:38:57.012Z,15.68
2023-04-23T19:43:58.632Z,15.68
2023-04-23T19:49:00.222Z,15.59
2023-04-23T19:54:02.873Z,15.54
2023-04-23T19:59:07.164Z,15.48
2023-04-23T20:04:09.243Z,15.34
2023-04-23T20:09:18.237Z,15.38
2023-04-23T20:14:20.161Z,15.31
2023-04-23T20:19:25.703Z,15.28
2023-04-23T20:24:27.307Z,15.23
2023-04-23T20:29:30.562Z,15.16
2023-04-23T20:34:32.107Z,15.10
2023-04-23T20:39:34.359Z,15.04
2023-04-23T20:44:36.252Z,15.09
2023-04-23T20:49:38.905Z,15.04
2023-04-23T20:54:40.636Z,15.01
2023-04-23T20:59:42.684Z,14.99
2023-04-23T21:04:44.700Z,14.94
2023-04-23T21:09:46.355Z,14.93
2023-04-23T21:14:47.989Z,14.85
2023-04-23T21:19:49.760Z,14.85
2023-04-23T21:24:51.363Z,14.83
2023-04-23T21:29:53.015Z,14.74
2023-04-23T21:34:54.588Z,14.70
2023-04-23T21:39:56.236Z,14.59
2023-04-23T21:44:57.828Z,14.58
2023-04-23T21:50:00.267Z,14.57
2023-04-23T21:55:01.925Z,14.55
2023-04-23T22:00:06.515Z,14.47
2023-04-23T22:05:16.939Z,14.47
2023-04-23T22:10:19.515Z,14.54
2023-04-23T22:15:21.157Z,14.50
2023-04-23T22:20:24.476Z,14.48
2023-04-23T22:25:26.122Z,14.45
2023-04-23T22:30:27.750Z,14.40
2023-04-23T22:35:29.365Z,14.42
2023-04-23T22:40:30.989Z,14.44
2023-04-23T22:45:32.606Z,14.40
2023-04-23T22:50:34.182Z,14.40
2023-04-23T22:55:35.816Z,14.33
2023-04-23T23:00:37.405Z,14.33
2023-04-23T23:05:39.540Z,14.31
2023-04-23T23:10:41.140Z,14.32
2023-04-23T23:15:42.794Z,14.33
2023-04-23T23:20:45.212Z,14.29
2023-04-23T23:25:46.767Z,14.31
2023-04-23T23:30:49.430Z,14.34
2023-04-23T23:35:51.271Z,14.29
2023-04-23T23:40:52.850Z,14.28
2023-04-23T23:45:54.448Z,14.32
2023-04-23T23:50:56.049Z,14.25
2023-04-23T23:55:58.100Z,14.15
